Terminal Aerodrome Forecast
Issued by NWS

Home | Current Version | Previous Version | Text Only | Print | Product List | Glossary On
Versions: 1 2 3 4 5 6 7 8 9 10 11 12 13 14 15 16 17 18
629
FTUS46 KMFR 162348
TAFRBG
TAF
KRBG 162348Z 1700/1724 00000KT P6SM SKC
     FM170600 00000KT P6SM -RA BKN030 OVC050
     FM171000 00000KT 1/2SM FG VV002 WS020/20035KT
     FM171700 18003KT P6SM SCT002 BKN090 WS010/19030KT
     FM172000 18012KT P6SM BKN080=

USA.gov is the U.S. government's official web portal to all federal, state and local government web resources and services.